sensor_id;sensor_type;location;lat;lon;timestamp;P1;durP1;ratioP1;P2;durP2;ratioP2
24585;SDS011;12743;52.262;6.172;2023-12-14T00:01:43;17.80;;;8.18;;
24585;SDS011;12743;52.262;6.172;2023-12-14T00:04:12;17.58;;;7.60;;
24585;SDS011;12743;52.262;6.172;2023-12-14T00:06:39;17.17;;;7.57;;
24585;SDS011;12743;52.262;6.172;2023-12-14T00:09:05;16.77;;;7.87;;
24585;SDS011;12743;52.262;6.172;2023-12-14T00:11:40;15.30;;;7.05;;
24585;SDS011;12743;52.262;6.172;2023-12-14T00:14:07;16.00;;;7.60;;
24585;SDS011;12743;52.262;6.172;2023-12-14T00:16:34;16.20;;;7.65;;
24585;SDS011;12743;52.262;6.172;2023-12-14T00:19:00;13.82;;;7.07;;
24585;SDS011;12743;52.262;6.172;2023-12-14T00:21:27;14.23;;;6.80;;
24585;SDS011;12743;52.262;6.172;2023-12-14T00:23:54;14.82;;;6.70;;
24585;SDS011;12743;52.262;6.172;2023-12-14T00:26:21;14.60;;;6.57;;
24585;SDS011;12743;52.262;6.172;2023-12-14T00:28:47;16.05;;;7.07;;
24585;SDS011;12743;52.262;6.172;2023-12-14T00:31:14;14.32;;;6.43;;
24585;SDS011;12743;52.262;6.172;2023-12-14T00:33:41;13.83;;;6.37;;
24585;SDS011;12743;52.262;6.172;2023-12-14T00:36:07;13.98;;;6.35;;
24585;SDS011;12743;52.262;6.172;2023-12-14T00:38:34;14.48;;;6.63;;
24585;SDS011;12743;52.262;6.172;2023-12-14T00:41:01;14.88;;;6.20;;
24585;SDS011;12743;52.262;6.172;2023-12-14T00:43:28;13.45;;;6.93;;
24585;SDS011;12743;52.262;6.172;2023-12-14T00:45:54;14.40;;;6.53;;
24585;SDS011;12743;52.262;6.172;2023-12-14T00:48:21;15.60;;;6.78;;
24585;SDS011;12743;52.262;6.172;2023-12-14T00:50:48;14.27;;;6.88;;
24585;SDS011;12743;52.262;6.172;2023-12-14T00:53:15;15.95;;;6.90;;
24585;SDS011;12743;52.262;6.172;2023-12-14T00:55:41;14.35;;;7.30;;
24585;SDS011;12743;52.262;6.172;2023-12-14T00:58:08;14.67;;;6.57;;
24585;SDS011;12743;52.262;6.172;2023-12-14T01:00:35;13.93;;;6.15;;
24585;SDS011;12743;52.262;6.172;2023-12-14T01:03:01;13.23;;;6.50;;
24585;SDS011;12743;52.262;6.172;2023-12-14T01:05:29;15.15;;;6.70;;
24585;SDS011;12743;52.262;6.172;2023-12-14T01:07:55;12.77;;;6.07;;
24585;SDS011;12743;52.262;6.172;2023-12-14T01:10:22;13.82;;;6.03;;
24585;SDS011;12743;52.262;6.172;2023-12-14T01:12:49;13.95;;;6.70;;
24585;SDS011;12743;52.262;6.172;2023-12-14T01:15:16;14.57;;;6.85;;
24585;SDS011;12743;52.262;6.172;2023-12-14T01:17:43;16.30;;;6.22;;
24585;SDS011;12743;52.262;6.172;2023-12-14T01:20:09;13.23;;;6.38;;
24585;SDS011;12743;52.262;6.172;2023-12-14T01:22:37;13.13;;;6.17;;
24585;SDS011;12743;52.262;6.172;2023-12-14T01:25:04;13.20;;;6.15;;
24585;SDS011;12743;52.262;6.172;2023-12-14T01:27:30;16.05;;;6.68;;
24585;SDS011;12743;52.262;6.172;2023-12-14T01:29:57;13.77;;;6.63;;
24585;SDS011;12743;52.262;6.172;2023-12-14T01:32:24;12.23;;;5.57;;
24585;SDS011;12743;52.262;6.172;2023-12-14T01:34:50;13.50;;;6.30;;
24585;SDS011;12743;52.262;6.172;2023-12-14T01:37:17;13.20;;;6.18;;
24585;SDS011;12743;52.262;6.172;2023-12-14T01:39:44;14.10;;;6.60;;
24585;SDS011;12743;52.262;6.172;2023-12-14T01:42:10;12.85;;;6.13;;
24585;SDS011;12743;52.262;6.172;2023-12-14T01:44:37;13.25;;;5.95;;
24585;SDS011;12743;52.262;6.172;2023-12-14T01:47:04;13.03;;;6.40;;
24585;SDS011;12743;52.262;6.172;2023-12-14T01:49:30;12.50;;;5.75;;
24585;SDS011;12743;52.262;6.172;2023-12-14T01:51:57;13.55;;;5.95;;
24585;SDS011;12743;52.262;6.172;2023-12-14T01:54:24;13.77;;;6.43;;
24585;SDS011;12743;52.262;6.172;2023-12-14T01:56:50;12.43;;;6.07;;
24585;SDS011;12743;52.262;6.172;2023-12-14T01:59:17;13.80;;;5.97;;
24585;SDS011;12743;52.262;6.172;2023-12-14T02:01:46;13.65;;;6.28;;
24585;SDS011;12743;52.262;6.172;2023-12-14T02:04:13;13.75;;;6.47;;
24585;SDS011;12743;52.262;6.172;2023-12-14T02:06:41;14.43;;;6.63;;
24585;SDS011;12743;52.262;6.172;2023-12-14T02:09:07;12.52;;;6.22;;
24585;SDS011;12743;52.262;6.172;2023-12-14T02:11:34;14.07;;;6.97;;
24585;SDS011;12743;52.262;6.172;2023-12-14T02:14:08;13.48;;;6.75;;
24585;SDS011;12743;52.262;6.172;2023-12-14T02:16:36;13.85;;;6.57;;
24585;SDS011;12743;52.262;6.172;2023-12-14T02:19:05;12.45;;;5.95;;
24585;SDS011;12743;52.262;6.172;2023-12-14T02:21:31;13.52;;;6.68;;
24585;SDS011;12743;52.262;6.172;2023-12-14T02:23:58;12.30;;;5.93;;
24585;SDS011;12743;52.262;6.172;2023-12-14T02:26:25;12.75;;;6.32;;
24585;SDS011;12743;52.262;6.172;2023-12-14T02:28:51;12.00;;;6.40;;
24585;SDS011;12743;52.262;6.172;2023-12-14T02:31:19;12.65;;;6.38;;
24585;SDS011;12743;52.262;6.172;2023-12-14T02:33:46;12.75;;;6.65;;
24585;SDS011;12743;52.262;6.172;2023-12-14T02:36:12;12.30;;;6.20;;
24585;SDS011;12743;52.262;6.172;2023-12-14T02:38:39;12.98;;;6.30;;
24585;SDS011;12743;52.262;6.172;2023-12-14T02:41:06;13.98;;;6.78;;
24585;SDS011;12743;52.262;6.172;2023-12-14T02:43:33;13.65;;;6.10;;
24585;SDS011;12743;52.262;6.172;2023-12-14T02:46:00;13.15;;;6.70;;
24585;SDS011;12743;52.262;6.172;2023-12-14T02:48:29;12.93;;;6.03;;
24585;SDS011;12743;52.262;6.172;2023-12-14T02:50:56;12.38;;;6.32;;
24585;SDS011;12743;52.262;6.172;2023-12-14T02:53:23;12.80;;;6.35;;
24585;SDS011;12743;52.262;6.172;2023-12-14T02:55:49;13.27;;;6.68;;
24585;SDS011;12743;52.262;6.172;2023-12-14T02:58:16;12.80;;;6.25;;
24585;SDS011;12743;52.262;6.172;2023-12-14T03:00:44;13.43;;;6.23;;
24585;SDS011;12743;52.262;6.172;2023-12-14T03:03:10;15.75;;;6.82;;
24585;SDS011;12743;52.262;6.172;2023-12-14T03:05:37;13.50;;;6.65;;
24585;SDS011;12743;52.262;6.172;2023-12-14T03:08:04;12.50;;;6.60;;
24585;SDS011;12743;52.262;6.172;2023-12-14T03:10:30;12.82;;;6.88;;
24585;SDS011;12743;52.262;6.172;2023-12-14T03:12:57;16.47;;;7.43;;
24585;SDS011;12743;52.262;6.172;2023-12-14T03:15:24;14.73;;;6.90;;
24585;SDS011;12743;52.262;6.172;2023-12-14T03:17:50;15.70;;;7.57;;
24585;SDS011;12743;52.262;6.172;2023-12-14T03:20:17;14.45;;;7.22;;
24585;SDS011;12743;52.262;6.172;2023-12-14T03:22:44;14.27;;;6.63;;
24585;SDS011;12743;52.262;6.172;2023-12-14T03:25:10;14.07;;;7.05;;
24585;SDS011;12743;52.262;6.172;2023-12-14T03:27:37;12.55;;;6.68;;
24585;SDS011;12743;52.262;6.172;2023-12-14T03:30:04;13.07;;;7.22;;
24585;SDS011;12743;52.262;6.172;2023-12-14T03:32:34;13.77;;;6.97;;
24585;SDS011;12743;52.262;6.172;2023-12-14T03:35:02;14.38;;;6.78;;
24585;SDS011;12743;52.262;6.172;2023-12-14T03:37:28;14.20;;;6.70;;
24585;SDS011;12743;52.262;6.172;2023-12-14T03:39:55;13.27;;;6.63;;
24585;SDS011;12743;52.262;6.172;2023-12-14T03:42:22;14.23;;;6.93;;
24585;SDS011;12743;52.262;6.172;2023-12-14T03:44:49;13.45;;;6.63;;
24585;SDS011;12743;52.262;6.172;2023-12-14T03:47:15;12.95;;;6.07;;
24585;SDS011;12743;52.262;6.172;2023-12-14T03:49:42;12.47;;;6.37;;
24585;SDS011;12743;52.262;6.172;2023-12-14T03:52:09;13.07;;;6.50;;
24585;SDS011;12743;52.262;6.172;2023-12-14T03:54:36;12.38;;;5.78;;
24585;SDS011;12743;52.262;6.172;2023-12-14T03:57:02;13.15;;;6.07;;
24585;SDS011;12743;52.262;6.172;2023-12-14T03:59:29;13.50;;;6.60;;
24585;SDS011;12743;52.262;6.172;2023-12-14T04:01:58;16.53;;;6.00;;
24585;SDS011;12743;52.262;6.172;2023-12-14T04:04:25;12.98;;;6.38;;
24585;SDS011;12743;52.262;6.172;2023-12-14T04:06:51;13.65;;;5.80;;
24585;SDS011;12743;52.262;6.172;2023-12-14T04:09:18;14.25;;;6.00;;
24585;SDS011;12743;52.262;6.172;2023-12-14T04:11:45;12.05;;;6.05;;
24585;SDS011;12743;52.262;6.172;2023-12-14T04:14:11;12.73;;;5.63;;
24585;SDS011;12743;52.262;6.172;2023-12-14T04:16:39;12.70;;;6.03;;
24585;SDS011;12743;52.262;6.172;2023-12-14T04:19:05;12.02;;;5.43;;
24585;SDS011;12743;52.262;6.172;2023-12-14T04:21:36;12.82;;;5.75;;
24585;SDS011;12743;52.262;6.172;2023-12-14T04:24:03;11.68;;;5.60;;
24585;SDS011;12743;52.262;6.172;2023-12-14T04:26:30;14.07;;;5.93;;
24585;SDS011;12743;52.262;6.172;2023-12-14T04:28:57;11.32;;;5.30;;
24585;SDS011;12743;52.262;6.172;2023-12-14T04:31:24;11.68;;;5.22;;
24585;SDS011;12743;52.262;6.172;2023-12-14T04:33:50;12.10;;;5.35;;
24585;SDS011;12743;52.262;6.172;2023-12-14T04:36:17;12.25;;;5.60;;
24585;SDS011;12743;52.262;6.172;2023-12-14T04:38:44;12.90;;;6.10;;
24585;SDS011;12743;52.262;6.172;2023-12-14T04:41:13;11.48;;;5.38;;
24585;SDS011;12743;52.262;6.172;2023-12-14T04:43:40;12.13;;;5.53;;
24585;SDS011;12743;52.262;6.172;2023-12-14T04:46:07;12.63;;;4.97;;
24585;SDS011;12743;52.262;6.172;2023-12-14T04:48:33;12.65;;;5.97;;
24585;SDS011;12743;52.262;6.172;2023-12-14T04:51:00;12.53;;;5.63;;
24585;SDS011;12743;52.262;6.172;2023-12-14T04:53:27;13.65;;;5.90;;
24585;SDS011;12743;52.262;6.172;2023-12-14T04:55:53;11.98;;;5.68;;
24585;SDS011;12743;52.262;6.172;2023-12-14T04:58:20;12.35;;;6.07;;
24585;SDS011;12743;52.262;6.172;2023-12-14T05:00:47;12.10;;;5.47;;
24585;SDS011;12743;52.262;6.172;2023-12-14T05:03:14;12.47;;;5.83;;
24585;SDS011;12743;52.262;6.172;2023-12-14T05:05:40;11.75;;;4.82;;
24585;SDS011;12743;52.262;6.172;2023-12-14T05:08:07;12.45;;;6.10;;
24585;SDS011;12743;52.262;6.172;2023-12-14T05:10:34;15.27;;;6.75;;
24585;SDS011;12743;52.262;6.172;2023-12-14T05:13:02;15.00;;;5.82;;
24585;SDS011;12743;52.262;6.172;2023-12-14T05:15:29;15.60;;;6.63;;
24585;SDS011;12743;52.262;6.172;2023-12-14T05:17:57;13.70;;;6.55;;
24585;SDS011;12743;52.262;6.172;2023-12-14T05:20:23;13.85;;;5.80;;
24585;SDS011;12743;52.262;6.172;2023-12-14T05:22:50;17.38;;;6.05;;
24585;SDS011;12743;52.262;6.172;2023-12-14T05:25:17;14.27;;;6.03;;
24585;SDS011;12743;52.262;6.172;2023-12-14T05:27:43;15.43;;;6.30;;
24585;SDS011;12743;52.262;6.172;2023-12-14T05:30:10;15.02;;;6.20;;
24585;SDS011;12743;52.262;6.172;2023-12-14T05:32:37;16.25;;;6.60;;
24585;SDS011;12743;52.262;6.172;2023-12-14T05:35:05;15.50;;;6.50;;
24585;SDS011;12743;52.262;6.172;2023-12-14T05:37:32;14.07;;;6.45;;
24585;SDS011;12743;52.262;6.172;2023-12-14T05:39:59;15.15;;;6.45;;
24585;SDS011;12743;52.262;6.172;2023-12-14T05:42:25;16.75;;;6.35;;
24585;SDS011;12743;52.262;6.172;2023-12-14T05:44:52;15.05;;;6.00;;
24585;SDS011;12743;52.262;6.172;2023-12-14T05:47:19;16.38;;;6.95;;
24585;SDS011;12743;52.262;6.172;2023-12-14T05:49:45;14.25;;;6.43;;
24585;SDS011;12743;52.262;6.172;2023-12-14T05:52:12;15.00;;;6.30;;
24585;SDS011;12743;52.262;6.172;2023-12-14T05:54:39;13.88;;;5.93;;
24585;SDS011;12743;52.262;6.172;2023-12-14T05:57:06;12.43;;;5.68;;
24585;SDS011;12743;52.262;6.172;2023-12-14T05:59:32;16.02;;;5.95;;
24585;SDS011;12743;52.262;6.172;2023-12-14T06:01:59;11.40;;;5.45;;
24585;SDS011;12743;52.262;6.172;2023-12-14T06:04:27;16.83;;;6.07;;
24585;SDS011;12743;52.262;6.172;2023-12-14T06:06:54;12.30;;;5.47;;
24585;SDS011;12743;52.262;6.172;2023-12-14T06:09:20;12.70;;;5.30;;
24585;SDS011;12743;52.262;6.172;2023-12-14T06:11:51;15.73;;;6.38;;
24585;SDS011;12743;52.262;6.172;2023-12-14T06:14:17;16.63;;;6.38;;
24585;SDS011;12743;52.262;6.172;2023-12-14T06:16:45;14.97;;;5.83;;
24585;SDS011;12743;52.262;6.172;2023-12-14T06:19:12;15.45;;;6.10;;
24585;SDS011;12743;52.262;6.172;2023-12-14T06:21:39;16.90;;;7.15;;
24585;SDS011;12743;52.262;6.172;2023-12-14T06:24:07;14.52;;;5.47;;
24585;SDS011;12743;52.262;6.172;2023-12-14T06:26:33;13.95;;;5.95;;
24585;SDS011;12743;52.262;6.172;2023-12-14T06:29:00;12.37;;;5.40;;
24585;SDS011;12743;52.262;6.172;2023-12-14T06:31:27;13.05;;;5.68;;
24585;SDS011;12743;52.262;6.172;2023-12-14T06:33:53;13.32;;;5.63;;
24585;SDS011;12743;52.262;6.172;2023-12-14T06:36:34;14.18;;;5.53;;
24585;SDS011;12743;52.262;6.172;2023-12-14T06:39:01;12.35;;;5.43;;
24585;SDS011;12743;52.262;6.172;2023-12-14T06:41:29;12.73;;;5.65;;
24585;SDS011;12743;52.262;6.172;2023-12-14T06:43:56;12.43;;;5.30;;
24585;SDS011;12743;52.262;6.172;2023-12-14T06:46:23;11.25;;;4.82;;
24585;SDS011;12743;52.262;6.172;2023-12-14T06:48:49;13.98;;;5.90;;
24585;SDS011;12743;52.262;6.172;2023-12-14T06:51:16;13.40;;;5.85;;
24585;SDS011;12743;52.262;6.172;2023-12-14T06:53:43;13.13;;;5.77;;
24585;SDS011;12743;52.262;6.172;2023-12-14T06:56:10;16.55;;;5.72;;
24585;SDS011;12743;52.262;6.172;2023-12-14T06:58:40;11.90;;;4.90;;
24585;SDS011;12743;52.262;6.172;2023-12-14T07:01:12;11.05;;;5.30;;
24585;SDS011;12743;52.262;6.172;2023-12-14T07:03:42;12.57;;;5.45;;
24585;SDS011;12743;52.262;6.172;2023-12-14T07:06:14;13.03;;;5.63;;
24585;SDS011;12743;52.262;6.172;2023-12-14T07:08:41;12.93;;;4.90;;
24585;SDS011;12743;52.262;6.172;2023-12-14T07:11:08;12.10;;;5.00;;
24585;SDS011;12743;52.262;6.172;2023-12-14T07:13:35;11.10;;;5.10;;
24585;SDS011;12743;52.262;6.172;2023-12-14T07:16:04;11.40;;;5.00;;
24585;SDS011;12743;52.262;6.172;2023-12-14T07:18:31;12.60;;;5.65;;
24585;SDS011;12743;52.262;6.172;2023-12-14T07:20:58;13.23;;;5.30;;
24585;SDS011;12743;52.262;6.172;2023-12-14T07:23:25;11.18;;;4.55;;
24585;SDS011;12743;52.262;6.172;2023-12-14T07:25:53;11.73;;;5.45;;
24585;SDS011;12743;52.262;6.172;2023-12-14T07:28:20;10.65;;;5.00;;
24585;SDS011;12743;52.262;6.172;2023-12-14T07:30:46;11.80;;;5.17;;
24585;SDS011;12743;52.262;6.172;2023-12-14T07:33:16;13.55;;;5.07;;
24585;SDS011;12743;52.262;6.172;2023-12-14T07:35:43;11.70;;;4.95;;
24585;SDS011;12743;52.262;6.172;2023-12-14T07:38:10;12.25;;;5.32;;
24585;SDS011;12743;52.262;6.172;2023-12-14T07:40:37;11.68;;;4.90;;
24585;SDS011;12743;52.262;6.172;2023-12-14T07:43:05;11.17;;;5.03;;
24585;SDS011;12743;52.262;6.172;2023-12-14T07:45:31;10.15;;;4.47;;
24585;SDS011;12743;52.262;6.172;2023-12-14T07:47:58;11.40;;;5.05;;
24585;SDS011;12743;52.262;6.172;2023-12-14T07:50:25;13.13;;;5.15;;
24585;SDS011;12743;52.262;6.172;2023-12-14T07:52:52;10.50;;;4.75;;
24585;SDS011;12743;52.262;6.172;2023-12-14T07:55:20;12.18;;;4.95;;
24585;SDS011;12743;52.262;6.172;2023-12-14T07:57:47;9.93;;;4.72;;
24585;SDS011;12743;52.262;6.172;2023-12-14T08:00:13;11.50;;;5.28;;
24585;SDS011;12743;52.262;6.172;2023-12-14T08:02:41;12.60;;;5.18;;
24585;SDS011;12743;52.262;6.172;2023-12-14T08:05:08;13.85;;;5.68;;
24585;SDS011;12743;52.262;6.172;2023-12-14T08:07:35;11.27;;;5.50;;
24585;SDS011;12743;52.262;6.172;2023-12-14T08:10:02;10.93;;;4.55;;
24585;SDS011;12743;52.262;6.172;2023-12-14T08:12:29;10.63;;;5.03;;
24585;SDS011;12743;52.262;6.172;2023-12-14T08:14:56;12.80;;;4.82;;
24585;SDS011;12743;52.262;6.172;2023-12-14T08:17:22;11.65;;;4.93;;
24585;SDS011;12743;52.262;6.172;2023-12-14T08:19:49;11.37;;;5.30;;
24585;SDS011;12743;52.262;6.172;2023-12-14T08:22:16;10.77;;;5.00;;
24585;SDS011;12743;52.262;6.172;2023-12-14T08:24:43;12.38;;;5.28;;
24585;SDS011;12743;52.262;6.172;2023-12-14T08:27:09;10.68;;;4.82;;
24585;SDS011;12743;52.262;6.172;2023-12-14T08:29:36;10.93;;;4.78;;
24585;SDS011;12743;52.262;6.172;2023-12-14T08:32:03;10.77;;;5.00;;
24585;SDS011;12743;52.262;6.172;2023-12-14T08:34:29;11.80;;;5.25;;
24585;SDS011;12743;52.262;6.172;2023-12-14T08:36:56;12.90;;;5.38;;
24585;SDS011;12743;52.262;6.172;2023-12-14T08:39:23;13.13;;;4.82;;
24585;SDS011;12743;52.262;6.172;2023-12-14T08:41:49;13.00;;;5.07;;
24585;SDS011;12743;52.262;6.172;2023-12-14T08:44:17;12.70;;;5.67;;
24585;SDS011;12743;52.262;6.172;2023-12-14T08:46:45;13.00;;;5.43;;
24585;SDS011;12743;52.262;6.172;2023-12-14T08:49:12;11.18;;;5.20;;
24585;SDS011;12743;52.262;6.172;2023-12-14T08:51:39;11.38;;;4.57;;
24585;SDS011;12743;52.262;6.172;2023-12-14T08:54:06;10.60;;;5.05;;
24585;SDS011;12743;52.262;6.172;2023-12-14T08:56:32;11.90;;;5.97;;
24585;SDS011;12743;52.262;6.172;2023-12-14T08:58:59;12.07;;;4.97;;
24585;SDS011;12743;52.262;6.172;2023-12-14T09:01:30;10.93;;;4.78;;
24585;SDS011;12743;52.262;6.172;2023-12-14T09:03:56;13.50;;;5.93;;
24585;SDS011;12743;52.262;6.172;2023-12-14T09:06:23;12.75;;;5.10;;
24585;SDS011;12743;52.262;6.172;2023-12-14T09:08:50;12.68;;;5.10;;
24585;SDS011;12743;52.262;6.172;2023-12-14T09:11:17;12.93;;;5.65;;
24585;SDS011;12743;52.262;6.172;2023-12-14T09:13:43;13.63;;;5.75;;
24585;SDS011;12743;52.262;6.172;2023-12-14T09:16:10;12.23;;;5.47;;
24585;SDS011;12743;52.262;6.172;2023-12-14T09:18:37;13.48;;;5.03;;
24585;SDS011;12743;52.262;6.172;2023-12-14T09:21:04;12.15;;;5.43;;
24585;SDS011;12743;52.262;6.172;2023-12-14T09:23:30;12.70;;;5.68;;
24585;SDS011;12743;52.262;6.172;2023-12-14T09:25:57;12.20;;;5.32;;
24585;SDS011;12743;52.262;6.172;2023-12-14T09:28:25;13.30;;;5.55;;
24585;SDS011;12743;52.262;6.172;2023-12-14T09:30:53;12.35;;;5.40;;
24585;SDS011;12743;52.262;6.172;2023-12-14T09:33:20;13.80;;;5.22;;
24585;SDS011;12743;52.262;6.172;2023-12-14T09:35:46;11.50;;;5.22;;
24585;SDS011;12743;52.262;6.172;2023-12-14T09:38:13;10.68;;;4.65;;
24585;SDS011;12743;52.262;6.172;2023-12-14T09:40:43;11.13;;;4.97;;
24585;SDS011;12743;52.262;6.172;2023-12-14T09:43:11;12.13;;;5.00;;
24585;SDS011;12743;52.262;6.172;2023-12-14T09:45:40;11.47;;;4.90;;
24585;SDS011;12743;52.262;6.172;2023-12-14T09:48:11;12.13;;;5.35;;
24585;SDS011;12743;52.262;6.172;2023-12-14T09:50:41;12.65;;;5.38;;
24585;SDS011;12743;52.262;6.172;2023-12-14T09:53:08;12.57;;;5.22;;
24585;SDS011;12743;52.262;6.172;2023-12-14T09:55:35;11.30;;;4.85;;
24585;SDS011;12743;52.262;6.172;2023-12-14T09:58:02;12.53;;;5.20;;
24585;SDS011;12743;52.262;6.172;2023-12-14T10:00:33;13.25;;;5.05;;
24585;SDS011;12743;52.262;6.172;2023-12-14T10:03:16;17.42;;;6.25;;
24585;SDS011;12743;52.262;6.172;2023-12-14T10:05:52;14.15;;;5.57;;
24585;SDS011;12743;52.262;6.172;2023-12-14T10:08:23;13.10;;;5.70;;
24585;SDS011;12743;52.262;6.172;2023-12-14T10:10:51;13.63;;;5.63;;
24585;SDS011;12743;52.262;6.172;2023-12-14T10:13:20;13.07;;;5.07;;
24585;SDS011;12743;52.262;6.172;2023-12-14T10:15:47;13.15;;;5.32;;
24585;SDS011;12743;52.262;6.172;2023-12-14T10:18:21;14.35;;;4.90;;
24585;SDS011;12743;52.262;6.172;2023-12-14T10:20:50;13.70;;;5.53;;
24585;SDS011;12743;52.262;6.172;2023-12-14T10:23:17;13.30;;;5.70;;
24585;SDS011;12743;52.262;6.172;2023-12-14T10:25:44;12.20;;;5.68;;
24585;SDS011;12743;52.262;6.172;2023-12-14T10:28:12;16.58;;;5.70;;
24585;SDS011;12743;52.262;6.172;2023-12-14T10:30:42;13.38;;;5.35;;
24585;SDS011;12743;52.262;6.172;2023-12-14T10:33:09;13.20;;;5.28;;
24585;SDS011;12743;52.262;6.172;2023-12-14T10:35:36;14.33;;;5.60;;
24585;SDS011;12743;52.262;6.172;2023-12-14T10:38:04;16.15;;;5.88;;
24585;SDS011;12743;52.262;6.172;2023-12-14T10:40:36;15.07;;;5.72;;
24585;SDS011;12743;52.262;6.172;2023-12-14T10:43:07;11.80;;;4.88;;
24585;SDS011;12743;52.262;6.172;2023-12-14T10:45:34;14.52;;;5.57;;
24585;SDS011;12743;52.262;6.172;2023-12-14T10:48:01;14.97;;;5.70;;
24585;SDS011;12743;52.262;6.172;2023-12-14T10:50:30;12.38;;;5.50;;
24585;SDS011;12743;52.262;6.172;2023-12-14T10:52:57;13.13;;;5.30;;
24585;SDS011;12743;52.262;6.172;2023-12-14T10:55:38;13.25;;;5.68;;
24585;SDS011;12743;52.262;6.172;2023-12-14T10:58:07;13.32;;;5.63;;
24585;SDS011;12743;52.262;6.172;2023-12-14T11:00:35;12.00;;;4.93;;
24585;SDS011;12743;52.262;6.172;2023-12-14T11:03:06;15.65;;;5.20;;
24585;SDS011;12743;52.262;6.172;2023-12-14T11:05:33;13.23;;;5.18;;
24585;SDS011;12743;52.262;6.172;2023-12-14T11:10:37;14.18;;;4.80;;
24585;SDS011;12743;52.262;6.172;2023-12-14T11:13:09;13.83;;;4.93;;
24585;SDS011;12743;52.262;6.172;2023-12-14T11:15:37;13.02;;;5.15;;
24585;SDS011;12743;52.262;6.172;2023-12-14T11:23:11;13.38;;;4.72;;
24585;SDS011;12743;52.262;6.172;2023-12-14T11:26:44;14.67;;;5.30;;
24585;SDS011;12743;52.262;6.172;2023-12-14T11:28:48;10.88;;;4.53;;
24585;SDS011;12743;52.262;6.172;2023-12-14T11:31:16;13.48;;;4.93;;
24585;SDS011;12743;52.262;6.172;2023-12-14T11:33:42;11.73;;;5.00;;
24585;SDS011;12743;52.262;6.172;2023-12-14T11:36:11;16.38;;;5.40;;
24585;SDS011;12743;52.262;6.172;2023-12-14T11:38:38;13.20;;;5.00;;
24585;SDS011;12743;52.262;6.172;2023-12-14T11:41:05;12.30;;;4.82;;
24585;SDS011;12743;52.262;6.172;2023-12-14T11:43:41;12.20;;;5.05;;
24585;SDS011;12743;52.262;6.172;2023-12-14T11:46:10;11.05;;;4.93;;
24585;SDS011;12743;52.262;6.172;2023-12-14T11:48:37;12.27;;;5.13;;
24585;SDS011;12743;52.262;6.172;2023-12-14T11:51:04;11.63;;;4.57;;
24585;SDS011;12743;52.262;6.172;2023-12-14T11:53:31;10.70;;;4.97;;
24585;SDS011;12743;52.262;6.172;2023-12-14T11:55:58;12.25;;;4.57;;
24585;SDS011;12743;52.262;6.172;2023-12-14T11:58:27;9.82;;;4.40;;
24585;SDS011;12743;52.262;6.172;2023-12-14T12:00:54;10.60;;;4.22;;
24585;SDS011;12743;52.262;6.172;2023-12-14T12:03:21;8.23;;;3.80;;
24585;SDS011;12743;52.262;6.172;2023-12-14T12:05:49;11.27;;;4.43;;
24585;SDS011;12743;52.262;6.172;2023-12-14T12:08:18;9.25;;;3.88;;
24585;SDS011;12743;52.262;6.172;2023-12-14T12:10:46;10.07;;;3.53;;
24585;SDS011;12743;52.262;6.172;2023-12-14T12:13:17;10.95;;;3.70;;
24585;SDS011;12743;52.262;6.172;2023-12-14T12:15:45;8.03;;;3.50;;
24585;SDS011;12743;52.262;6.172;2023-12-14T12:18:12;7.93;;;3.10;;
24585;SDS011;12743;52.262;6.172;2023-12-14T12:20:40;6.53;;;2.95;;
24585;SDS011;12743;52.262;6.172;2023-12-14T12:23:07;8.65;;;2.72;;
24585;SDS011;12743;52.262;6.172;2023-12-14T12:25:34;8.13;;;3.17;;
24585;SDS011;12743;52.262;6.172;2023-12-14T12:28:02;9.50;;;3.27;;
24585;SDS011;12743;52.262;6.172;2023-12-14T12:30:32;7.53;;;3.25;;
24585;SDS011;12743;52.262;6.172;2023-12-14T12:33:03;7.88;;;3.25;;
24585;SDS011;12743;52.262;6.172;2023-12-14T12:35:29;7.90;;;3.20;;
24585;SDS011;12743;52.262;6.172;2023-12-14T12:37:57;8.07;;;3.05;;
24585;SDS011;12743;52.262;6.172;2023-12-14T12:40:24;8.03;;;3.40;;
24585;SDS011;12743;52.262;6.172;2023-12-14T12:42:52;9.10;;;3.30;;
24585;SDS011;12743;52.262;6.172;2023-12-14T12:45:19;6.85;;;3.15;;
24585;SDS011;12743;52.262;6.172;2023-12-14T12:47:48;10.20;;;3.25;;
24585;SDS011;12743;52.262;6.172;2023-12-14T12:50:16;7.97;;;3.10;;
24585;SDS011;12743;52.262;6.172;2023-12-14T12:52:43;7.03;;;3.07;;
24585;SDS011;12743;52.262;6.172;2023-12-14T12:55:12;8.95;;;3.10;;
24585;SDS011;12743;52.262;6.172;2023-12-14T12:57:38;7.70;;;3.05;;
24585;SDS011;12743;52.262;6.172;2023-12-14T13:00:06;9.02;;;2.97;;
24585;SDS011;12743;52.262;6.172;2023-12-14T13:02:37;7.70;;;3.35;;
24585;SDS011;12743;52.262;6.172;2023-12-14T13:05:08;7.55;;;3.35;;
24585;SDS011;12743;52.262;6.172;2023-12-14T13:07:40;9.10;;;3.25;;
24585;SDS011;12743;52.262;6.172;2023-12-14T13:10:10;10.95;;;3.20;;
24585;SDS011;12743;52.262;6.172;2023-12-14T13:12:54;8.35;;;3.10;;
24585;SDS011;12743;52.262;6.172;2023-12-14T13:15:21;8.73;;;3.30;;
24585;SDS011;12743;52.262;6.172;2023-12-14T13:17:50;9.57;;;3.90;;
24585;SDS011;12743;52.262;6.172;2023-12-14T13:20:17;10.65;;;4.10;;
24585;SDS011;12743;52.262;6.172;2023-12-14T13:22:45;10.15;;;3.50;;
24585;SDS011;12743;52.262;6.172;2023-12-14T13:25:12;8.82;;;3.90;;
24585;SDS011;12743;52.262;6.172;2023-12-14T13:27:38;9.52;;;3.58;;
24585;SDS011;12743;52.262;6.172;2023-12-14T13:30:05;10.47;;;4.20;;
24585;SDS011;12743;52.262;6.172;2023-12-14T13:32:32;10.85;;;4.30;;
24585;SDS011;12743;52.262;6.172;2023-12-14T13:34:59;11.57;;;4.60;;
24585;SDS011;12743;52.262;6.172;2023-12-14T13:37:26;12.35;;;4.05;;
24585;SDS011;12743;52.262;6.172;2023-12-14T13:39:53;10.20;;;4.22;;
24585;SDS011;12743;52.262;6.172;2023-12-14T13:42:19;10.73;;;4.10;;
24585;SDS011;12743;52.262;6.172;2023-12-14T13:44:46;11.05;;;4.32;;
24585;SDS011;12743;52.262;6.172;2023-12-14T13:47:13;12.98;;;4.57;;
24585;SDS011;12743;52.262;6.172;2023-12-14T13:49:40;11.40;;;4.80;;
24585;SDS011;12743;52.262;6.172;2023-12-14T13:52:06;10.40;;;4.68;;
24585;SDS011;12743;52.262;6.172;2023-12-14T13:54:33;10.67;;;4.77;;
24585;SDS011;12743;52.262;6.172;2023-12-14T13:57:00;11.70;;;4.13;;
24585;SDS011;12743;52.262;6.172;2023-12-14T13:59:27;10.52;;;4.53;;
24585;SDS011;12743;52.262;6.172;2023-12-14T14:01:54;10.60;;;4.93;;
24585;SDS011;12743;52.262;6.172;2023-12-14T14:04:20;12.15;;;4.40;;
24585;SDS011;12743;52.262;6.172;2023-12-14T14:06:47;10.80;;;4.43;;
24585;SDS011;12743;52.262;6.172;2023-12-14T14:09:13;10.63;;;4.70;;
24585;SDS011;12743;52.262;6.172;2023-12-14T14:11:40;13.60;;;5.15;;
24585;SDS011;12743;52.262;6.172;2023-12-14T14:14:13;11.48;;;4.65;;
24585;SDS011;12743;52.262;6.172;2023-12-14T14:16:40;12.10;;;5.32;;
24585;SDS011;12743;52.262;6.172;2023-12-14T14:19:07;13.07;;;4.57;;
24585;SDS011;12743;52.262;6.172;2023-12-14T14:21:34;10.88;;;4.70;;
24585;SDS011;12743;52.262;6.172;2023-12-14T14:24:00;16.50;;;5.85;;
24585;SDS011;12743;52.262;6.172;2023-12-14T14:26:27;11.25;;;4.90;;
24585;SDS011;12743;52.262;6.172;2023-12-14T14:28:54;12.48;;;4.63;;
24585;SDS011;12743;52.262;6.172;2023-12-14T14:31:26;11.33;;;4.70;;
24585;SDS011;12743;52.262;6.172;2023-12-14T14:33:56;11.90;;;4.88;;
24585;SDS011;12743;52.262;6.172;2023-12-14T14:36:22;11.07;;;4.88;;
24585;SDS011;12743;52.262;6.172;2023-12-14T14:38:49;12.10;;;4.90;;
24585;SDS011;12743;52.262;6.172;2023-12-14T14:41:20;10.52;;;4.80;;
24585;SDS011;12743;52.262;6.172;2023-12-14T14:43:47;12.23;;;4.70;;
24585;SDS011;12743;52.262;6.172;2023-12-14T14:46:14;12.68;;;5.10;;